createdAt,value
2019-06-10T00:00:13.737Z,95.50
2019-06-10T00:04:18.829Z,95.70
2019-06-10T00:08:24.589Z,96.20
2019-06-10T00:12:31.488Z,94.60
2019-06-10T00:16:37.336Z,94.20
2019-06-10T00:20:43.205Z,93.50
2019-06-10T00:24:48.982Z,94.50
2019-06-10T00:28:54.673Z,95.60
2019-06-10T00:33:02.759Z,94.80
2019-06-10T00:37:12.013Z,92.80
2019-06-10T00:41:15.283Z,92.10
2019-06-10T00:45:21.593Z,92.60
2019-06-10T00:49:28.427Z,91.70
2019-06-10T00:53:34.201Z,90.60
2019-06-10T00:57:41.831Z,90.20
2019-06-10T01:01:47.673Z,91.60
2019-06-10T01:05:53.347Z,94.00
2019-06-10T01:10:00.973Z,93.40
2019-06-10T01:14:07.400Z,92.70
2019-06-10T01:18:33.666Z,93.40
2019-06-10T01:22:21.328Z,94.60
2019-06-10T01:26:27.119Z,94.90
2019-06-10T01:30:32.884Z,94.00
2019-06-10T01:34:38.609Z,93.40
2019-06-10T01:38:44.522Z,91.80
2019-06-10T01:42:51.181Z,92.90
2019-06-10T01:46:56.932Z,94.80
2019-06-10T01:51:02.655Z,95.80
2019-06-10T01:55:11.866Z,94.40
2019-06-10T01:59:16.956Z,93.70
2019-06-10T02:03:24.054Z,93.40
2019-06-10T02:07:31.958Z,95.10
2019-06-10T02:11:37.934Z,96.70
2019-06-10T02:15:43.641Z,96.80
2019-06-10T02:19:50.889Z,98.20
2019-06-10T02:23:56.783Z,98.30
2019-06-10T02:28:02.516Z,97.90
2019-06-10T02:32:08.211Z,96.10
2019-06-10T02:36:17.435Z,96.20
2019-06-10T02:40:29.284Z,96.60
2019-06-10T02:44:33.351Z,96.20
2019-06-10T02:48:36.605Z,95.80
2019-06-10T02:52:44.346Z,96.70
2019-06-10T02:56:53.433Z,97.90
2019-06-10T03:00:57.213Z,97.20
2019-06-10T03:05:04.509Z,96.30
2019-06-10T03:09:10.379Z,97.00
2019-06-10T03:13:16.104Z,97.90
2019-06-10T03:17:25.856Z,98.60
2019-06-10T03:21:32.299Z,96.50
2019-06-10T03:25:38.316Z,96.30
2019-06-10T03:29:44.016Z,97.50
2019-06-10T03:33:53.892Z,97.70
2019-06-10T03:37:57.358Z,95.60
2019-06-10T03:42:03.089Z,96.00
2019-06-10T03:46:08.786Z,97.60
2019-06-10T03:50:15.049Z,99.00
2019-06-10T03:54:24.451Z,99.90
2019-06-10T03:58:29.265Z,99.90
2019-06-10T04:02:35.198Z,98.10
2019-06-10T04:06:44.092Z,98.20
2019-06-10T04:10:48.345Z,97.40
2019-06-10T04:14:54.211Z,97.10
2019-06-10T04:19:02.326Z,97.60
2019-06-10T04:23:07.419Z,98.80
2019-06-10T04:27:13.240Z,99.90
2019-06-10T04:31:18.944Z,98.90
2019-06-10T04:35:26.230Z,98.60
2019-06-10T04:39:33.649Z,97.30
2019-06-10T04:43:39.617Z,96.00
2019-06-10T04:47:46.391Z,96.40
2019-06-10T04:51:52.507Z,96.90
2019-06-10T04:55:58.200Z,96.10
2019-06-10T05:00:11.200Z,94.90
2019-06-10T05:04:12.540Z,96.00
2019-06-10T05:08:19.011Z,97.20
2019-06-10T05:12:25.326Z,95.60
2019-06-10T05:16:35.539Z,94.50
2019-06-10T05:20:52.075Z,94.10
2019-06-10T05:24:47.802Z,93.90
2019-06-10T05:28:53.866Z,93.20
2019-06-10T05:32:59.607Z,94.30
2019-06-10T05:37:05.395Z,93.90
2019-06-10T05:41:13.354Z,93.20
2019-06-10T05:45:18.718Z,93.00
2019-06-10T05:49:25.968Z,93.40
2019-06-10T05:53:34.968Z,93.40
2019-06-10T05:57:39.254Z,93.10
2019-06-10T06:01:45.064Z,92.90
2019-06-10T06:05:52.498Z,92.60
2019-06-10T06:09:58.518Z,92.90
2019-06-10T06:14:04.483Z,94.00
2019-06-10T06:18:13.428Z,94.40
2019-06-10T06:22:17.931Z,93.60
2019-06-10T06:26:23.998Z,93.40
2019-06-10T06:30:30.187Z,92.80
2019-06-10T06:34:38.582Z,92.90
2019-06-10T06:38:43.958Z,93.30
2019-06-10T06:42:52.412Z,93.50
2019-06-10T06:46:57.276Z,92.60
2019-06-10T06:51:08.165Z,91.90
2019-06-10T06:55:12.817Z,91.80
2019-06-10T06:59:18.732Z,91.30
2019-06-10T07:03:24.460Z,91.00
2019-06-10T07:07:33.097Z,92.40
2019-06-10T07:11:45.047Z,91.30
2019-06-10T07:15:49.849Z,88.50
2019-06-10T07:19:57.590Z,85.20
2019-06-10T07:24:03.349Z,83.60
2019-06-10T07:28:09.066Z,82.00
2019-06-10T07:32:14.909Z,81.00
2019-06-10T07:36:23.329Z,80.10
2019-06-10T07:40:28.268Z,78.50
2019-06-10T07:44:34.878Z,78.60
2019-06-10T07:48:46.197Z,86.50
2019-06-10T07:52:48.919Z,88.20
2019-06-10T07:56:54.758Z,85.70
2019-06-10T08:01:02.661Z,82.90
2019-06-10T08:05:08.425Z,86.60
2019-06-10T08:09:14.220Z,82.60
2019-06-10T08:13:19.934Z,83.60
2019-06-10T08:17:25.722Z,82.10
2019-06-10T08:21:32.295Z,83.70
2019-06-10T08:25:38.497Z,83.80
2019-06-10T08:29:48.063Z,82.90
2019-06-10T08:33:53.454Z,82.50
2019-06-10T08:37:59.429Z,82.00
2019-06-10T08:42:05.579Z,83.40
2019-06-10T08:46:13.135Z,83.00
2019-06-10T08:50:22.266Z,82.70
2019-06-10T08:54:26.997Z,82.20
2019-06-10T08:58:33.262Z,83.00
2019-06-10T09:02:40.881Z,83.60
2019-06-10T09:06:49.557Z,84.00
2019-06-10T09:10:55.391Z,84.60
2019-06-10T09:15:03.735Z,83.10
2019-06-10T09:19:09.981Z,84.00
2019-06-10T09:23:22.091Z,84.30
2019-06-10T09:27:26.879Z,81.80
2019-06-10T09:31:33.156Z,80.00
2019-06-10T09:35:39.915Z,77.70
2019-06-10T09:39:52.299Z,75.20
2019-06-10T09:43:56.900Z,73.50
2019-06-10T09:48:03.992Z,72.30
2019-06-10T09:52:09.947Z,70.00
2019-06-10T09:56:15.832Z,71.90
2019-06-10T10:00:50.465Z,72.20
2019-06-10T10:04:58.354Z,68.40
2019-06-10T10:09:04.097Z,62.60
2019-06-10T10:13:13.075Z,62.00
2019-06-10T10:17:19.175Z,59.60
2019-06-10T10:21:24.871Z,61.80
2019-06-10T10:25:32.807Z,64.10
2019-06-10T10:29:38.418Z,60.40
2019-06-10T10:33:44.358Z,66.20
2019-06-10T10:37:53.447Z,66.50
2019-06-10T10:41:57.675Z,62.60
2019-06-10T10:46:05.448Z,60.50
2019-06-10T10:50:13.919Z,57.20
2019-06-10T10:54:29.827Z,58.80
2019-06-10T10:58:27.315Z,60.00
2019-06-10T11:02:33.144Z,58.10
2019-06-10T11:06:38.954Z,57.50
2019-06-10T11:10:49.170Z,56.90
2019-06-10T11:15:00.472Z,60.70
2019-06-10T11:19:02.803Z,60.00
2019-06-10T11:23:08.665Z,60.00
2019-06-10T11:27:14.343Z,61.90
2019-06-10T11:31:22.583Z,65.70
2019-06-10T11:35:27.691Z,65.10
2019-06-10T11:39:36.603Z,68.70
2019-06-10T11:43:42.939Z,69.40
2019-06-10T11:47:49.367Z,65.90
2019-06-10T11:51:57.640Z,67.10
2019-06-10T11:56:03.517Z,66.60
2019-06-10T12:00:14.802Z,68.10
2019-06-10T12:04:20.391Z,66.90
2019-06-10T12:08:26.472Z,67.10
2019-06-10T12:12:33.730Z,69.20
2019-06-10T12:20:47.639Z,67.00
2019-06-10T12:25:18.728Z,68.20
2019-06-10T12:29:05.290Z,68.20
2019-06-10T12:33:08.401Z,69.00
2019-06-10T12:37:15.917Z,65.40
2019-06-10T12:41:23.228Z,70.00
2019-06-10T12:45:32.517Z,69.60
2019-06-10T12:49:37.739Z,69.80
2019-06-10T12:53:43.638Z,69.90
2019-06-10T12:57:49.336Z,70.00
2019-06-10T13:01:55.837Z,70.70
2019-06-10T13:06:07.193Z,71.40
2019-06-10T13:10:15.289Z,71.50
2019-06-10T13:14:22.056Z,71.40
2019-06-10T13:18:27.956Z,71.60
2019-06-10T13:22:33.734Z,72.00
2019-06-10T13:26:42.996Z,72.30
2019-06-10T13:30:47.853Z,72.80
2019-06-10T13:34:56.429Z,73.10
2019-06-10T13:39:05.905Z,74.10
2019-06-10T13:43:09.650Z,74.20
2019-06-10T13:47:15.391Z,74.40
2019-06-10T13:51:21.155Z,76.30
2019-06-10T13:55:27.168Z,77.80
2019-06-10T13:59:32.899Z,78.30
2019-06-10T14:03:38.653Z,78.10
2019-06-10T14:07:44.469Z,78.70
2019-06-10T14:11:50.168Z,81.90
2019-06-10T14:15:55.895Z,85.00
2019-06-10T14:20:01.810Z,89.30
2019-06-10T14:24:08.196Z,88.60
2019-06-10T14:28:32.269Z,90.20
2019-06-10T14:32:22.489Z,89.30
2019-06-10T14:36:28.482Z,86.30
2019-06-10T14:40:34.205Z,89.50
2019-06-10T14:44:42.004Z,88.10
2019-06-10T14:48:47.427Z,84.50
2019-06-10T14:52:53.159Z,83.70
2019-06-10T14:56:59.276Z,83.50
2019-06-10T15:01:07.510Z,82.10
2019-06-10T15:05:15.563Z,81.50
2019-06-10T15:09:22.613Z,81.70
2019-06-10T15:13:28.034Z,81.50
2019-06-10T15:17:34.190Z,81.30
2019-06-10T15:21:39.919Z,82.60
2019-06-10T15:25:52.541Z,85.10
2019-06-10T15:29:53.172Z,84.10
2019-06-10T15:33:59.292Z,85.80
2019-06-10T15:38:05.176Z,83.20
2019-06-10T15:42:11.545Z,82.40
2019-06-10T15:46:17.976Z,82.00
2019-06-10T15:50:27.457Z,81.30
2019-06-10T15:54:33.337Z,81.60
2019-06-10T15:58:39.239Z,81.50
2019-06-10T16:02:45.033Z,82.90
2019-06-10T16:06:52.954Z,82.00
2019-06-10T16:10:58.728Z,81.60
2019-06-10T16:15:06.442Z,81.30
2019-06-10T16:19:13.338Z,81.30
2019-06-10T16:23:19.859Z,81.40
2019-06-10T16:27:43.682Z,81.70
2019-06-10T16:31:33.351Z,81.90
2019-06-10T16:35:39.082Z,81.70
2019-06-10T16:39:44.887Z,81.40
2019-06-10T16:43:52.237Z,84.00
2019-06-10T16:47:58.069Z,90.10
2019-06-10T16:52:03.907Z,92.70
2019-06-10T16:56:12.025Z,94.60
2019-06-10T17:00:18.398Z,94.50
2019-06-10T17:04:27.264Z,94.60
2019-06-10T17:08:33.418Z,94.20
2019-06-10T17:12:39.311Z,94.80
2019-06-10T17:16:45.007Z,95.60
2019-06-10T17:20:53.288Z,95.90
2019-06-10T17:24:58.213Z,97.30
2019-06-10T17:29:04.090Z,95.30
2019-06-10T17:33:09.869Z,95.10
2019-06-10T17:37:15.573Z,94.60
2019-06-10T17:41:25.840Z,95.80
2019-06-10T17:45:30.587Z,97.10
2019-06-10T17:49:36.635Z,97.00
2019-06-10T17:53:42.799Z,96.70
2019-06-10T17:57:48.576Z,95.80
2019-06-10T18:01:56.283Z,95.10
2019-06-10T18:06:02.771Z,95.30
2019-06-10T18:10:09.380Z,97.50
2019-06-10T18:14:15.132Z,98.10
2019-06-10T18:18:20.860Z,96.90
2019-06-10T18:22:28.475Z,98.60
2019-06-10T18:26:37.622Z,99.10
2019-06-10T18:30:43.435Z,97.60
2019-06-10T18:34:49.239Z,99.10
2019-06-10T18:38:54.913Z,98.80
2019-06-10T18:43:02.784Z,97.60
2019-06-10T18:47:08.148Z,98.30
2019-06-10T18:51:13.931Z,99.90
2019-06-10T18:55:22.587Z,99.90
2019-06-10T18:59:28.449Z,99.90
2019-06-10T19:03:36.267Z,99.70
2019-06-10T19:07:42.860Z,99.30
2019-06-10T19:11:49.002Z,99.90
2019-06-10T19:15:54.745Z,99.90
2019-06-10T19:20:00.502Z,99.90
2019-06-10T19:24:06.816Z,99.90
2019-06-10T19:28:13.618Z,99.90
2019-06-10T19:32:19.331Z,99.90
2019-06-10T19:36:25.036Z,99.90
2019-06-10T19:40:32.560Z,99.90
2019-06-10T19:44:39.214Z,99.90
2019-06-10T19:48:57.301Z,99.90
2019-06-10T19:52:52.391Z,99.90
2019-06-10T19:56:58.105Z,99.90
2019-06-10T20:01:03.838Z,99.90
2019-06-10T20:05:12.323Z,99.90
2019-06-10T20:09:17.596Z,99.90
2019-06-10T20:13:23.351Z,99.90
2019-06-10T20:17:29.196Z,99.90
2019-06-10T20:21:36.013Z,99.90
2019-06-10T20:25:44.283Z,99.90
2019-06-10T20:30:03.687Z,99.80
2019-06-10T20:33:58.680Z,98.00
2019-06-10T20:38:05.066Z,96.30
2019-06-10T20:42:12.902Z,95.40
2019-06-10T20:46:18.706Z,97.40
2019-06-10T20:50:24.555Z,99.60
2019-06-10T20:54:32.305Z,99.90
2019-06-10T20:58:38.741Z,99.90
2019-06-10T21:02:45.905Z,99.90
2019-06-10T21:06:53.737Z,99.90
2019-06-10T21:11:02.678Z,99.90
2019-06-10T21:15:09.701Z,99.90
2019-06-10T21:19:15.417Z,99.90
2019-06-10T21:23:22.501Z,99.90
2019-06-10T21:27:28.280Z,99.90
2019-06-10T21:31:34.167Z,99.90
2019-06-10T21:35:42.473Z,99.90
2019-06-10T21:39:49.595Z,99.90
2019-06-10T21:43:59.495Z,99.90
2019-06-10T21:48:04.183Z,99.50
2019-06-10T21:52:10.129Z,99.60
2019-06-10T21:56:15.883Z,99.40
2019-06-10T22:00:24.462Z,99.80
2019-06-10T22:04:32.628Z,99.90
2019-06-10T22:08:38.601Z,99.90
2019-06-10T22:12:44.317Z,99.90
2019-06-10T22:16:50.895Z,99.90
2019-06-10T22:20:57.759Z,99.90
2019-06-10T22:25:03.844Z,99.90
2019-06-10T22:29:09.528Z,99.90
2019-06-10T22:33:15.387Z,99.90
2019-06-10T22:37:21.099Z,99.90
2019-06-10T22:41:26.818Z,99.90
2019-06-10T22:45:32.656Z,99.90
2019-06-10T22:49:38.382Z,99.90
2019-06-10T22:53:44.094Z,99.90
2019-06-10T22:57:51.785Z,99.90
2019-06-10T23:01:59.978Z,99.90
2019-06-10T23:06:05.831Z,99.90
2019-06-10T23:10:12.359Z,99.90
2019-06-10T23:14:18.245Z,99.90
2019-06-10T23:18:23.967Z,99.90
2019-06-10T23:22:29.771Z,99.90
2019-06-10T23:26:35.515Z,99.90
2019-06-10T23:30:42.713Z,99.90
2019-06-10T23:34:48.955Z,99.90
2019-06-10T23:38:54.903Z,99.90
2019-06-10T23:43:01.657Z,99.90
2019-06-10T23:47:08.167Z,99.90
2019-06-10T23:51:13.922Z,99.90
2019-06-10T23:55:19.634Z,99.90
2019-06-10T23:59:25.424Z,99.90
